aviador You're here:

VOBL Decoded Metar

Bengaluru in INDIA
Report Time2018-06-24 20:00:00
UTC Time2018-06-24 20:18:18
Flight Rules mvfr MVFR
Wind260° at 11 kt
W.Decomp.*RWY 27: 10.9 kt HW 1.7 kt LCW
W.Rank260° ranks 1
Current wind is above 260° avg. (9.2)
Visibility6000 m
Phenomena:N/A
Clouds:Scattered 012 Hf
Scattered 080 Hf
CeilingNone
Temp22°C (ISA +13)
Dew Point22°C (100% RH)
QNH1012 hPa
Density Alt4,905 ft
Elevation3,002 ft
Report Wrong Elevation
Raw Report
METAR VOBL 242000Z 26011KT 6000 SCT012 SCT080 22/22 Q1012 NOSIG=

Extra information for VOBL:More info

Metar Taf Metar & Taf Last 4 Metars F.Rules Stats Wind Profile Meteogram Temp Stats Airport Information Weather charts Add Link Nearby VenuesMetar ALERT Operation Metar Decoded Social comments